createdAt,value
2022-08-17T00:02:26.970Z,99839.16
2022-08-17T00:05:32.701Z,99837.09
2022-08-17T00:08:43.948Z,99831.66
2022-08-17T00:12:41.532Z,99828.66
2022-08-17T00:15:12.113Z,99821.56
2022-08-17T00:19:01.829Z,99833.97
2022-08-17T00:22:29.520Z,99836.75
2022-08-17T00:25:07.175Z,99831.75
2022-08-17T00:28:09.557Z,99829.62
2022-08-17T00:31:12.583Z,99824.50
2022-08-17T00:34:14.708Z,99824.78
2022-08-17T00:37:17.133Z,99826.47
2022-08-17T00:40:20.452Z,99824.25
2022-08-17T00:43:27.482Z,99823.00
2022-08-17T00:46:40.358Z,99827.72
2022-08-17T00:49:42.826Z,99825.81
2022-08-17T00:52:55.942Z,99836.19
2022-08-17T00:56:01.785Z,99831.75
2022-08-17T00:59:07.432Z,99840.94
2022-08-17T01:02:14.088Z,99842.97
2022-08-17T01:05:23.515Z,99844.50
2022-08-17T01:08:30.542Z,99853.59
2022-08-17T01:11:33.135Z,99855.31
2022-08-17T01:14:36.197Z,99847.22
2022-08-17T01:17:38.413Z,99853.81
2022-08-17T01:20:48.559Z,99854.91
2022-08-17T01:23:50.983Z,99853.75
2022-08-17T01:26:53.496Z,99851.38
2022-08-17T01:30:04.134Z,99865.63
2022-08-17T01:33:26.694Z,99858.28
2022-08-17T01:36:28.867Z,99862.38
2022-08-17T01:39:47.522Z,99859.53
2022-08-17T01:42:59.280Z,99851.16
2022-08-17T01:46:03.701Z,99853.25
2022-08-17T01:49:09.919Z,99853.75
2022-08-17T01:52:12.829Z,99851.63
2022-08-17T01:55:22.471Z,99854.28
2022-08-17T01:58:28.318Z,99865.91
2022-08-17T02:01:32.797Z,99855.53
2022-08-17T02:04:35.308Z,99858.69
2022-08-17T02:07:59.688Z,99856.59
2022-08-17T02:11:00.054Z,99854.47
2022-08-17T02:14:05.103Z,99863.66
2022-08-17T02:17:07.500Z,99858.47
2022-08-17T02:20:10.662Z,99860.72
2022-08-17T02:23:14.356Z,99858.16
2022-08-17T02:26:25.763Z,99848.69
2022-08-17T02:29:29.379Z,99838.41
2022-08-17T02:32:31.532Z,99841.00
2022-08-17T02:35:34.808Z,99852.12
2022-08-17T02:38:38.502Z,99843.44
2022-08-17T02:41:41.029Z,99843.50
2022-08-17T02:44:43.519Z,99852.03
2022-08-17T02:47:47.103Z,99849.00
2022-08-17T02:50:49.394Z,99844.41
2022-08-17T02:53:52.273Z,99847.47
2022-08-17T02:56:54.403Z,99843.81
2022-08-17T02:59:56.830Z,99851.44
2022-08-17T03:02:58.960Z,99851.84
2022-08-17T03:06:01.909Z,99848.13
2022-08-17T03:09:04.711Z,99848.19
2022-08-17T03:12:11.032Z,99850.59
2022-08-17T03:15:22.557Z,99854.94
2022-08-17T03:18:26.390Z,99857.72
2022-08-17T03:21:28.774Z,99857.19
2022-08-17T03:24:31.368Z,99852.06
2022-08-17T03:27:33.509Z,99859.50
2022-08-17T03:30:36.429Z,99858.84
2022-08-17T03:33:38.538Z,99866.44
2022-08-17T03:36:41.139Z,99871.91
2022-08-17T03:39:43.304Z,99877.94
2022-08-17T03:42:45.878Z,99875.09
2022-08-17T03:46:10.979Z,99876.94
2022-08-17T03:49:47.660Z,99876.66
2022-08-17T03:53:08.972Z,99873.97
2022-08-17T03:56:29.718Z,99874.31
2022-08-17T03:59:32.726Z,99881.00
2022-08-17T04:02:36.035Z,99882.06
2022-08-17T04:05:39.101Z,99884.06
2022-08-17T04:08:42.095Z,99891.19
2022-08-17T04:11:44.933Z,99897.31
2022-08-17T04:14:53.382Z,99897.53
2022-08-17T04:17:57.144Z,99895.91
2022-08-17T04:20:59.472Z,99897.66
2022-08-17T04:24:02.963Z,99895.41
2022-08-17T04:27:05.361Z,99895.31
2022-08-17T04:30:08.588Z,99898.16
2022-08-17T04:33:17.350Z,99897.53
2022-08-17T04:36:19.885Z,99903.94
2022-08-17T04:39:24.097Z,99904.13
2022-08-17T04:42:26.539Z,99911.22
2022-08-17T04:45:31.255Z,99907.13
2022-08-17T04:48:39.581Z,99905.78
2022-08-17T04:51:45.574Z,99909.59
2022-08-17T04:54:57.993Z,99919.00
2022-08-17T04:58:00.173Z,99917.84
2022-08-17T05:01:03.094Z,99922.50
2022-08-17T05:04:32.815Z,99922.72
2022-08-17T05:07:31.820Z,99933.25
2022-08-17T05:10:37.760Z,99929.38
2022-08-17T05:13:50.232Z,99925.03
2022-08-17T05:16:52.538Z,99928.75
2022-08-17T05:19:55.088Z,99937.31
2022-08-17T05:23:01.260Z,99929.19
2022-08-17T05:26:04.196Z,99934.63
2022-08-17T05:29:09.318Z,99922.66
2022-08-17T05:32:37.219Z,99931.38
2022-08-17T05:35:42.572Z,99924.91
2022-08-17T05:38:44.955Z,99926.94
2022-08-17T05:41:48.156Z,99926.28
2022-08-17T05:44:50.547Z,99932.06
2022-08-17T05:47:52.654Z,99932.72
2022-08-17T05:51:06.292Z,99932.25
2022-08-17T05:54:14.550Z,99931.03
2022-08-17T05:57:22.561Z,99934.84
2022-08-17T06:00:31.296Z,99938.19
2022-08-17T06:03:52.382Z,99941.63
2022-08-17T06:07:10.369Z,99944.62
2022-08-17T06:10:34.866Z,99941.50
2022-08-17T06:14:01.644Z,99942.09
2022-08-17T06:17:08.603Z,99941.66
2022-08-17T06:20:16.931Z,99949.34
2022-08-17T06:23:43.441Z,99951.97
2022-08-17T06:26:46.463Z,99955.28
2022-08-17T06:30:06.889Z,99952.69
2022-08-17T06:33:19.403Z,99956.97
2022-08-17T06:36:43.113Z,99951.81
2022-08-17T06:39:48.864Z,99957.31
2022-08-17T06:43:26.156Z,99951.44
2022-08-17T06:46:34.385Z,99950.47
2022-08-17T06:49:55.301Z,99954.69
2022-08-17T06:53:08.455Z,99959.62
2022-08-17T06:56:13.611Z,99952.91
2022-08-17T06:59:19.573Z,99957.00
2022-08-17T07:02:52.431Z,99956.91
2022-08-17T07:06:03.760Z,99949.94
2022-08-17T07:09:18.794Z,99948.37
2022-08-17T07:12:26.450Z,99955.44
2022-08-17T07:15:42.355Z,99953.13
2022-08-17T07:18:45.392Z,99946.66
2022-08-17T07:22:03.082Z,99952.03
2022-08-17T07:25:08.404Z,99950.91
2022-08-17T07:28:12.953Z,99945.34
2022-08-17T07:31:17.388Z,99942.50
2022-08-17T07:34:19.762Z,99938.84
2022-08-17T07:37:21.843Z,99933.47
2022-08-17T07:40:29.393Z,99941.59
2022-08-17T07:43:31.510Z,99937.84
2022-08-17T07:47:05.369Z,99939.50
2022-08-17T07:50:28.859Z,99929.50
2022-08-17T07:53:32.005Z,99935.69
2022-08-17T07:56:57.523Z,99939.63
2022-08-17T07:59:59.813Z,99941.44
2022-08-17T08:03:24.641Z,99937.19
2022-08-17T08:06:28.855Z,99947.09
2022-08-17T08:09:42.050Z,99948.13
2022-08-17T08:12:46.015Z,99942.97
2022-08-17T08:15:54.598Z,99934.47
2022-08-17T08:19:01.032Z,99937.53
2022-08-17T08:22:09.550Z,99944.19
2022-08-17T08:25:23.928Z,99938.06
2022-08-17T08:28:35.649Z,99931.87
2022-08-17T08:32:01.095Z,99937.59
2022-08-17T08:35:31.517Z,99934.50
2022-08-17T08:38:40.088Z,99936.22
2022-08-17T08:42:00.379Z,99934.72
2022-08-17T08:45:09.244Z,99936.66
2022-08-17T08:48:55.717Z,99935.59
2022-08-17T08:52:00.191Z,99940.09
2022-08-17T08:55:27.972Z,99933.63
2022-08-17T08:58:42.366Z,99919.53
2022-08-17T09:01:59.782Z,99917.03
2022-08-17T09:05:16.504Z,99918.59
2022-08-17T09:08:37.099Z,99925.31
2022-08-17T09:12:01.755Z,99919.63
2022-08-17T09:15:13.326Z,99927.28
2022-08-17T09:19:00.458Z,99926.13
2022-08-17T09:21:54.417Z,99920.31
2022-08-17T09:25:06.878Z,99921.56
2022-08-17T09:28:19.274Z,99920.59
2022-08-17T09:31:32.771Z,99920.69
2022-08-17T09:34:43.513Z,99920.66
2022-08-17T09:38:03.826Z,99917.56
2022-08-17T09:41:23.089Z,99920.34
2022-08-17T09:44:31.078Z,99905.94
2022-08-17T09:47:53.856Z,99915.81
2022-08-17T09:51:13.807Z,99905.06
2022-08-17T09:54:41.500Z,99905.22
2022-08-17T09:58:05.135Z,99905.28
2022-08-17T10:01:36.825Z,99905.53
2022-08-17T10:04:58.056Z,99909.19
2022-08-17T10:08:21.906Z,99906.91
2022-08-17T10:11:52.253Z,99906.62
2022-08-17T10:15:22.542Z,99909.16
2022-08-17T10:18:49.559Z,99910.34
2022-08-17T10:22:34.494Z,99910.78
2022-08-17T10:26:14.999Z,99914.75
2022-08-17T10:29:32.705Z,99905.59
2022-08-17T10:33:14.405Z,99904.50
2022-08-17T10:36:32.927Z,99896.25
2022-08-17T10:40:00.629Z,99892.97
2022-08-17T10:43:20.160Z,99893.66
2022-08-17T10:46:55.401Z,99899.78
2022-08-17T10:50:36.953Z,99894.19
2022-08-17T10:53:42.162Z,99905.19
2022-08-17T10:56:50.294Z,99895.03
2022-08-17T10:59:54.961Z,99903.72
2022-08-17T11:02:58.509Z,99884.69
2022-08-17T11:06:15.946Z,99884.84
2022-08-17T11:09:43.217Z,99891.12
2022-08-17T11:13:26.651Z,99887.88
2022-08-17T11:17:04.861Z,99875.62
2022-08-17T11:20:38.741Z,99882.66
2022-08-17T11:23:57.556Z,99881.81
2022-08-17T11:27:12.439Z,99880.06
2022-08-17T11:30:35.942Z,99871.00
2022-08-17T11:33:39.212Z,99873.69
2022-08-17T11:36:49.489Z,99868.00
2022-08-17T11:40:09.847Z,99860.59
2022-08-17T11:43:32.344Z,99855.25
2022-08-17T11:47:15.654Z,99859.25
2022-08-17T11:50:43.845Z,99856.09
2022-08-17T11:53:46.187Z,99853.69
2022-08-17T11:56:50.632Z,99854.94
2022-08-17T12:00:05.026Z,99851.25
2022-08-17T12:03:32.039Z,99857.75
2022-08-17T12:06:43.870Z,99852.41
2022-08-17T12:09:50.421Z,99849.81
2022-08-17T12:12:54.770Z,99845.28
2022-08-17T12:15:58.687Z,99837.78
2022-08-17T12:19:02.850Z,99834.59
2022-08-17T12:22:26.486Z,99832.81
2022-08-17T12:25:56.623Z,99827.38
2022-08-17T12:29:02.554Z,99829.69
2022-08-17T12:32:07.039Z,99828.94
2022-08-17T12:35:29.733Z,99823.53
2022-08-17T12:38:38.224Z,99820.66
2022-08-17T12:41:44.056Z,99822.50
2022-08-17T12:44:50.515Z,99814.12
2022-08-17T12:48:06.503Z,99810.84
2022-08-17T12:51:08.915Z,99812.38
2022-08-17T12:54:27.190Z,99809.91
2022-08-17T12:57:32.747Z,99811.13
2022-08-17T13:00:47.260Z,99801.81
2022-08-17T13:03:52.575Z,99806.31
2022-08-17T13:06:59.852Z,99808.28
2022-08-17T13:10:04.052Z,99803.78
2022-08-17T13:13:38.159Z,99801.59
2022-08-17T13:16:40.485Z,99800.06
2022-08-17T13:19:49.733Z,99791.28
2022-08-17T13:22:58.231Z,99790.94
2022-08-17T13:26:14.835Z,99800.38
2022-08-17T13:29:28.875Z,99803.47
2022-08-17T13:32:31.206Z,99796.88
2022-08-17T13:35:39.336Z,99791.66
2022-08-17T13:38:50.894Z,99784.47
2022-08-17T13:41:55.361Z,99795.75
2022-08-17T13:44:58.844Z,99789.66
2022-08-17T13:48:13.770Z,99781.63
2022-08-17T13:51:27.218Z,99788.97
2022-08-17T13:54:34.140Z,99788.63
2022-08-17T13:57:36.880Z,99782.78
2022-08-17T14:00:40.302Z,99784.16
2022-08-17T14:03:42.740Z,99790.28
2022-08-17T14:06:52.990Z,99788.91
2022-08-17T14:10:13.404Z,99785.03
2022-08-17T14:13:15.573Z,99780.37
2022-08-17T14:16:17.932Z,99778.38
2022-08-17T14:19:21.872Z,99778.69
2022-08-17T14:22:36.009Z,99780.37
2022-08-17T14:25:38.213Z,99779.13
2022-08-17T14:28:53.577Z,99774.50
2022-08-17T14:32:04.259Z,99772.22
2022-08-17T14:35:08.702Z,99773.81
2022-08-17T14:38:10.796Z,99764.25
2022-08-17T14:41:13.251Z,99772.94
2022-08-17T14:44:15.655Z,99771.38
2022-08-17T14:47:18.095Z,99769.34
2022-08-17T14:50:21.191Z,99771.28
2022-08-17T14:53:24.782Z,99778.25
2022-08-17T14:56:27.226Z,99772.87
2022-08-17T14:59:35.501Z,99762.59
2022-08-17T15:02:53.813Z,99766.44
2022-08-17T15:05:56.377Z,99769.69
2022-08-17T15:08:58.500Z,99768.38
2022-08-17T15:12:02.135Z,99752.78
2022-08-17T15:15:05.614Z,99769.00
2022-08-17T15:18:08.339Z,99776.44
2022-08-17T15:21:10.835Z,99775.75
2022-08-17T15:24:14.029Z,99772.47
2022-08-17T15:27:16.188Z,99772.81
2022-08-17T15:30:34.068Z,99767.91
2022-08-17T15:33:36.272Z,99769.22
2022-08-17T15:36:49.134Z,99766.84
2022-08-17T15:39:52.191Z,99774.66
2022-08-17T15:42:54.771Z,99770.78
2022-08-17T15:46:01.228Z,99758.75
2022-08-17T15:49:03.708Z,99774.69
2022-08-17T15:52:16.910Z,99772.53
2022-08-17T15:55:24.013Z,99771.72
2022-08-17T15:58:29.989Z,99777.31
2022-08-17T16:03:01.285Z,99776.19
2022-08-17T16:05:10.128Z,99778.44
2022-08-17T16:08:15.893Z,99769.38
2022-08-17T16:11:22.456Z,99774.44
2022-08-17T16:14:33.870Z,99768.47
2022-08-17T16:17:39.857Z,99771.50
2022-08-17T16:20:43.005Z,99776.16
2022-08-17T16:23:47.501Z,99771.00
2022-08-17T16:26:49.664Z,99770.72
2022-08-17T16:29:52.095Z,99769.41
2022-08-17T16:32:59.837Z,99765.28
2022-08-17T16:36:02.321Z,99765.34
2022-08-17T16:39:04.770Z,99771.41
2022-08-17T16:42:24.426Z,99767.00
2022-08-17T16:45:29.267Z,99760.16
2022-08-17T16:48:31.670Z,99763.75
2022-08-17T16:51:34.614Z,99770.59
2022-08-17T16:54:39.182Z,99763.75
2022-08-17T16:57:47.500Z,99764.84
2022-08-17T17:00:54.314Z,99767.59
2022-08-17T17:04:02.464Z,99765.13
2022-08-17T17:07:14.828Z,99769.50
2022-08-17T17:10:22.236Z,99773.25
2022-08-17T17:13:32.380Z,99774.63
2022-08-17T17:16:40.566Z,99774.00
2022-08-17T17:19:53.190Z,99775.81
2022-08-17T17:23:07.112Z,99780.53
2022-08-17T17:26:27.669Z,99776.72
2022-08-17T17:29:55.815Z,99779.16
2022-08-17T17:33:17.464Z,99779.53
2022-08-17T17:36:27.749Z,99783.81
2022-08-17T17:39:55.865Z,99791.53
2022-08-17T17:43:09.441Z,99802.44
2022-08-17T17:46:37.774Z,99799.94
2022-08-17T17:49:44.244Z,99798.84
2022-08-17T17:53:19.001Z,99802.00
2022-08-17T17:57:11.533Z,99811.03
2022-08-17T18:00:20.625Z,99811.97
2022-08-17T18:03:42.702Z,99813.66
2022-08-17T18:06:57.034Z,99810.28
2022-08-17T18:10:29.675Z,99812.06
2022-08-17T18:13:52.055Z,99807.88
2022-08-17T18:16:59.569Z,99827.28
2022-08-17T18:20:03.810Z,99827.78
2022-08-17T18:23:06.567Z,99824.94
2022-08-17T18:26:08.754Z,99829.34
2022-08-17T18:29:34.224Z,99834.03
2022-08-17T18:32:43.488Z,99834.50
2022-08-17T18:35:58.877Z,99840.47
2022-08-17T18:39:15.222Z,99842.22
2022-08-17T18:42:33.799Z,99844.06
2022-08-17T18:45:43.437Z,99849.66
2022-08-17T18:48:54.182Z,99848.47
2022-08-17T18:52:16.571Z,99851.69
2022-08-17T18:55:24.719Z,99855.47
2022-08-17T18:58:26.944Z,99858.53
2022-08-17T19:01:59.934Z,99861.59
2022-08-17T19:05:30.646Z,99873.19
2022-08-17T19:08:35.942Z,99863.81
2022-08-17T19:11:39.661Z,99862.63
2022-08-17T19:14:43.423Z,99862.88
2022-08-17T19:17:59.363Z,99860.00
2022-08-17T19:21:14.859Z,99867.44
2022-08-17T19:24:22.955Z,99870.03
2022-08-17T19:27:41.961Z,99869.78
2022-08-17T19:30:50.347Z,99878.94
2022-08-17T19:33:54.737Z,99876.22
2022-08-17T19:37:02.020Z,99875.09
2022-08-17T19:40:41.779Z,99876.38
2022-08-17T19:43:54.450Z,99879.56
2022-08-17T19:47:08.221Z,99876.69
2022-08-17T19:50:16.576Z,99878.94
2022-08-17T19:53:47.381Z,99881.88
2022-08-17T19:57:18.251Z,99885.97
2022-08-17T20:00:20.867Z,99880.84
2022-08-17T20:03:26.302Z,99880.66
2022-08-17T20:06:32.914Z,99884.00
2022-08-17T20:09:43.091Z,99878.09
2022-08-17T20:12:48.778Z,99882.00
2022-08-17T20:15:51.291Z,99875.84
2022-08-17T20:19:04.678Z,99869.03
2022-08-17T20:22:17.152Z,99872.47
2022-08-17T20:25:35.453Z,99869.66
2022-08-17T20:28:41.301Z,99879.41
2022-08-17T20:31:55.611Z,99882.13
2022-08-17T20:35:08.403Z,99866.84
2022-08-17T20:38:30.943Z,99874.41
2022-08-17T20:42:04.495Z,99868.38
2022-08-17T20:45:21.546Z,99870.19
2022-08-17T20:48:38.110Z,99864.81
2022-08-17T20:52:01.176Z,99874.69
2022-08-17T20:55:04.862Z,99865.13
2022-08-17T20:58:15.976Z,99864.37
2022-08-17T21:01:34.594Z,99868.16
2022-08-17T21:05:00.745Z,99867.38
2022-08-17T21:08:16.110Z,99867.19
2022-08-17T21:11:58.247Z,99867.41
2022-08-17T21:15:16.369Z,99867.66
2022-08-17T21:18:25.883Z,99872.69
2022-08-17T21:21:57.872Z,99872.31
2022-08-17T21:25:12.229Z,99875.91
2022-08-17T21:28:34.164Z,99874.66
2022-08-17T21:31:41.262Z,99878.84
2022-08-17T21:35:11.107Z,99881.75
2022-08-17T21:38:15.483Z,99883.41
2022-08-17T21:41:33.678Z,99883.66
2022-08-17T21:44:46.361Z,99886.56
2022-08-17T21:48:09.258Z,99888.03
2022-08-17T21:51:21.079Z,99887.25
2022-08-17T21:54:47.747Z,99900.78
2022-08-17T21:57:53.066Z,99894.34
2022-08-17T22:01:20.910Z,99898.28
2022-08-17T22:04:31.099Z,99899.34
2022-08-17T22:07:36.721Z,99904.13
2022-08-17T22:10:42.159Z,99910.37
2022-08-17T22:13:46.353Z,99912.22
2022-08-17T22:17:05.361Z,99911.41
2022-08-17T22:20:15.811Z,99920.53
2022-08-17T22:23:59.883Z,99920.97
2022-08-17T22:27:11.854Z,99916.59
2022-08-17T22:30:47.117Z,99924.31
2022-08-17T22:33:52.339Z,99932.63
2022-08-17T22:37:20.920Z,99930.53
2022-08-17T22:40:34.438Z,99930.28
2022-08-17T22:43:38.427Z,99940.25
2022-08-17T22:47:24.158Z,99928.81
2022-08-17T22:50:29.587Z,99940.03
2022-08-17T22:53:50.429Z,99936.06
2022-08-17T22:57:21.632Z,99952.28
2022-08-17T23:00:29.463Z,99970.59
2022-08-17T23:03:31.866Z,99972.69
2022-08-17T23:06:37.327Z,99974.12
2022-08-17T23:09:39.748Z,99979.28
2022-08-17T23:12:42.050Z,99977.87
2022-08-17T23:15:45.846Z,99977.03
2022-08-17T23:18:50.660Z,99982.84
2022-08-17T23:21:55.507Z,99986.19
2022-08-17T23:24:58.522Z,99986.03
2022-08-17T23:28:01.819Z,99989.53
2022-08-17T23:31:07.798Z,99997.66
2022-08-17T23:34:13.594Z,99992.03
2022-08-17T23:37:17.920Z,99989.31
2022-08-17T23:40:20.347Z,99985.78
2022-08-17T23:43:24.393Z,99979.53
2022-08-17T23:46:28.198Z,99969.97
2022-08-17T23:49:31.711Z,99966.44
2022-08-17T23:52:36.884Z,99968.31
2022-08-17T23:55:39.000Z,99971.44
2022-08-17T23:58:43.138Z,99968.31
